Terminal Aerodrome Forecast
Issued by NWS Springfield, MO

Home | Current Version | Previous Version | Text Only | Print | Product List | Glossary On
Versions: 1 2 3 4 5 6 7 8 9 10 11 12 13 14 15 16 17 18 19 20 21 22 23 24
902
FTUS43 KSGF 030520
TAFSGF
TAF
KSGF 030520Z 0306/0406 09005KT P6SM OVC100
     FM031800 13008KT P6SM VCSH OVC070
     FM040000 12007KT 6SM -SHRA OVC040
     FM040100 12007KT 4SM -SHRA OVC035
     FM040300 12007KT 3SM -SHRA BR OVC015=

USA.gov is the U.S. government's official web portal to all federal, state and local government web resources and services.